Time;durP1;ratioP1;P1;durP2;ratioP2;P2;SDS_P1;SDS_P2;PMS_P1;PMS_P2;Temp;Humidity;BMP_temperature;BMP_pressure;BME280_temperature;BME280_humidity;BME280_pressure;Samples;Min_cycle;Max_cycle;Signal;HPM_P1;HPM_P2
2021/07/23 00:01:09;;;;;;;5.60;2.53;;;;;;;13.31;68.80;98404.28;4991982;28;20045;-70
2021/07/23 00:03:36;;;;;;;3.78;2.95;;;;;;;13.29;69.11;98405.66;4992340;28;20050;-69
2021/07/23 00:06:02;;;;;;;14.98;3.10;;;;;;;13.29;68.83;98406.44;4994304;28;20046;-68
2021/07/23 00:08:28;;;;;;;5.65;2.85;;;;;;;13.27;69.43;98411.25;4995709;28;20050;-69
2021/07/23 00:10:54;;;;;;;5.85;2.75;;;;;;;13.25;69.08;98401.94;4995540;28;20101;-70
2021/07/23 00:13:19;;;;;;;6.80;2.42;;;;;;;13.23;69.51;98404.84;4995682;28;20042;-69
2021/07/23 00:15:45;;;;;;;5.28;2.80;;;;;;;13.18;69.42;98403.06;4996376;28;20515;-67
2021/07/23 00:18:11;;;;;;;4.95;2.40;;;;;;;13.22;69.30;98403.28;4990326;28;20074;-66
2021/07/23 00:20:37;;;;;;;4.47;2.75;;;;;;;13.21;69.37;98406.19;4993921;28;20153;-66
2021/07/23 00:23:02;;;;;;;5.88;2.72;;;;;;;13.18;69.60;98412.91;4993911;28;20472;-67
2021/07/23 00:25:29;;;;;;;4.05;2.83;;;;;;;13.16;69.91;98402.53;4995074;28;20045;-66
2021/07/23 00:27:55;;;;;;;4.85;2.85;;;;;;;13.14;69.65;98403.88;5011485;28;20049;-67
2021/07/23 00:30:21;;;;;;;6.60;2.70;;;;;;;13.16;69.64;98407.06;4997095;28;20045;-67
2021/07/23 00:32:47;;;;;;;4.07;2.53;;;;;;;13.15;69.64;98405.47;5014551;28;20048;-68
2021/07/23 00:35:13;;;;;;;3.72;2.80;;;;;;;13.13;70.01;98403.06;5014743;28;20515;-68
2021/07/23 00:37:39;;;;;;;4.93;2.50;;;;;;;13.12;70.01;98398.84;5014758;28;20045;-66
2021/07/23 00:40:06;;;;;;;4.68;2.83;;;;;;;13.11;70.18;98391.13;5014566;28;20046;-66
2021/07/23 00:42:38;;;;;;;5.63;2.40;;;;;;;13.10;70.12;98393.00;5014193;28;20046;-67
2021/07/23 00:45:05;;;;;;;3.28;2.30;;;;;;;13.05;70.17;98377.06;5014382;28;20042;-67
2021/07/23 00:47:31;;;;;;;4.72;2.42;;;;;;;13.08;70.41;98387.16;5013189;28;20080;-67
2021/07/23 00:49:58;;;;;;;5.70;2.58;;;;;;;13.08;70.25;98392.47;4996633;28;20050;-68
2021/07/23 00:52:25;;;;;;;2.65;2.20;;;;;;;13.06;70.10;98385.84;5014559;28;20084;-69
2021/07/23 00:54:51;;;;;;;5.13;2.10;;;;;;;13.05;70.23;98386.91;4996763;28;20084;-71
2021/07/23 00:57:18;;;;;;;2.83;2.22;;;;;;;13.04;70.67;98380.00;5013100;28;20053;-71
2021/07/23 00:59:45;;;;;;;4.65;2.20;;;;;;;13.02;70.63;98380.28;5012702;28;20038;-71
2021/07/23 01:02:12;;;;;;;3.53;2.40;;;;;;;13.01;70.76;98378.69;4980783;28;20053;-71
2021/07/23 01:04:41;;;;;;;7.60;2.83;;;;;;;13.02;70.60;98374.16;5012863;28;20136;-69
2021/07/23 01:07:08;;;;;;;;;;;;;;;13.02;70.38;98376.81;5013315;28;20057;-70
2021/07/23 01:09:34;;;;;;;5.88;2.40;;;;;;;12.99;70.45;98378.19;4996667;28;19925;-70
2021/07/23 01:12:02;;;;;;;4.70;3.00;;;;;;;13.00;70.57;98374.47;4993412;28;20038;-68
2021/07/23 01:14:35;;;;;;;6.28;2.42;;;;;;;12.99;70.48;98370.19;4994578;28;20046;-69
2021/07/23 01:17:02;;;;;;;6.03;2.25;;;;;;;12.99;70.63;98370.19;4976537;28;20050;-65
2021/07/23 01:19:35;;;;;;;2.88;2.03;;;;;;;12.97;70.81;98367.03;4994499;28;20045;-67
2021/07/23 01:22:04;;;;;;;4.40;2.13;;;;;;;12.99;70.63;98369.41;4994151;28;20060;-70
2021/07/23 01:24:32;;;;;;;2.33;2.00;;;;;;;13.01;70.46;98369.94;4977022;28;20133;-69
2021/07/23 01:27:03;;;;;;;5.55;2.33;;;;;;;13.02;70.77;98366.19;4992608;28;20062;-70
2021/07/23 01:30:06;;;;;;;4.88;2.20;;;;;;;13.04;70.52;98364.84;4992283;28;20109;-69
2021/07/23 01:32:36;;;;;;;4.45;2.20;;;;;;;13.06;70.55;98360.03;4992996;28;20152;-70
2021/07/23 01:35:04;;;;;;;2.58;1.92;;;;;;;13.09;70.52;98364.03;4976767;28;20050;-69
2021/07/23 01:37:31;;;;;;;2.58;2.00;;;;;;;13.11;70.59;98359.19;4992736;28;20134;-69
2021/07/23 01:39:58;;;;;;;4.45;2.08;;;;;;;13.14;70.38;98359.44;4992958;28;20097;-70
2021/07/23 01:42:29;;;;;;;3.75;1.92;;;;;;;13.26;70.29;98356.44;4992739;28;20085;-70
2021/07/23 01:44:56;;;;;;;3.10;1.80;;;;;;;13.49;68.99;98364.75;4993727;28;20076;-69
2021/07/23 01:47:22;;;;;;;2.30;1.98;;;;;;;13.64;68.92;98357.41;4992539;28;20042;-70
2021/07/23 01:49:48;;;;;;;2.85;1.80;;;;;;;13.81;68.00;98359.63;4992445;28;20042;-69
2021/07/23 01:52:20;;;;;;;6.55;1.95;;;;;;;13.90;67.93;98359.78;4994068;28;20072;-69
2021/07/23 01:54:47;;;;;;;2.22;2.03;;;;;;;14.04;67.28;98363.34;4992350;28;20051;-69
2021/07/23 01:57:20;;;;;;;3.33;1.90;;;;;;;14.15;67.06;98361.38;4992391;28;20064;-69
2021/07/23 01:59:51;;;;;;;2.88;1.75;;;;;;;14.20;67.05;98360.50;4976857;28;20050;-69
2021/07/23 02:02:17;;;;;;;3.58;2.22;;;;;;;14.40;66.71;98362.13;4992091;28;20528;-69
2021/07/23 02:04:43;;;;;;;3.08;1.77;;;;;;;14.51;66.20;98361.72;4993636;28;20499;-69
2021/07/23 02:07:09;;;;;;;2.03;1.67;;;;;;;14.68;65.34;98365.78;5008445;28;20066;-70
2021/07/23 02:09:36;;;;;;;4.78;2.00;;;;;;;14.90;64.93;98355.28;4993534;28;20062;-69
2021/07/23 02:12:04;;;;;;;1.88;1.63;;;;;;;15.13;63.74;98356.25;4993523;28;20100;-68
2021/07/23 02:14:48;;;;;;;1.80;1.70;;;;;;;15.38;63.07;98354.22;4993202;28;20053;-68
2021/07/23 02:17:15;;;;;;;4.95;1.95;;;;;;;15.56;62.39;98350.72;4991796;28;20042;-69
2021/07/23 02:19:44;;;;;;;1.67;1.50;;;;;;;15.86;61.60;98345.91;4991893;28;20087;-69
2021/07/23 02:22:16;;;;;;;2.92;1.80;;;;;;;16.21;60.34;98355.09;4992020;28;20054;-68
2021/07/23 02:24:42;;;;;;;3.35;2.05;;;;;;;16.46;59.65;98340.38;4992041;28;20052;-68
2021/07/23 02:27:11;;;;;;;3.35;1.65;;;;;;;16.54;59.07;98345.03;4990520;28;20070;-67
2021/07/23 02:29:40;;;;;;;2.63;1.63;;;;;;;16.78;58.40;98338.63;4991600;28;20108;-67
2021/07/23 02:32:06;;;;;;;1.83;1.50;;;;;;;17.14;57.39;98343.13;4991705;28;20046;-68
2021/07/23 02:34:32;;;;;;;2.58;1.90;;;;;;;17.33;56.72;98341.03;4991484;28;20548;-67
2021/07/23 02:37:00;;;;;;;2.80;1.70;;;;;;;17.49;56.13;98346.78;5007925;28;20069;-67
2021/07/23 02:39:28;;;;;;;2.13;1.60;;;;;;;17.70;55.37;98333.63;4991462;28;20070;-67
2021/07/23 02:42:00;;;;;;;1.92;1.45;;;;;;;18.04;54.42;98338.34;4991599;28;20051;-66
2021/07/23 02:44:29;;;;;;;3.33;1.80;;;;;;;18.28;53.42;98339.81;4991303;28;20054;-68
2021/07/23 02:46:55;;;;;;;3.78;1.95;;;;;;;18.54;53.12;98339.84;4991339;28;20397;-66
2021/07/23 02:49:22;;;;;;;3.50;1.85;;;;;;;18.67;52.68;98338.88;4991238;28;20046;-69
2021/07/23 02:51:50;;;;;;;2.25;1.70;;;;;;;18.69;52.24;98331.31;4990819;28;20141;-73
2021/07/23 02:54:16;;;;;;;2.60;1.65;;;;;;;18.71;52.28;98331.81;4959028;28;20054;-73
2021/07/23 02:56:42;;;;;;;2.55;1.60;;;;;;;18.89;51.88;98337.19;4992693;28;20050;-73
2021/07/23 02:59:08;;;;;;;4.10;1.60;;;;;;;18.69;52.35;98323.25;4991182;28;20532;-74
2021/07/23 03:01:37;;;;;;;2.17;1.60;;;;;;;18.33;53.09;98320.91;4991085;28;20046;-73
2021/07/23 03:04:04;;;;;;;1.90;1.70;;;;;;;18.20;53.63;98322.59;4991010;28;20049;-74
2021/07/23 03:06:38;;;;;;;2.95;1.92;;;;;;;18.05;54.06;98317.69;4991042;28;20070;-73
2021/07/23 03:09:04;;;;;;;1.75;1.65;;;;;;;17.86;54.60;98301.88;4991164;28;20077;-74
2021/07/23 03:11:31;;;;;;;2.22;1.77;;;;;;;17.77;54.97;98304.50;5003855;28;20049;-73
2021/07/23 03:14:04;;;;;;;3.55;1.88;;;;;;;17.60;55.69;98315.16;5010600;28;20128;-74
2021/07/23 03:16:37;;;;;;;1.95;1.70;;;;;;;17.49;55.85;98304.69;5010456;28;20157;-74
2021/07/23 03:19:04;;;;;;;1.50;1.30;;;;;;;17.28;56.68;98303.66;5010413;28;20064;-74
2021/07/23 03:21:30;;;;;;;1.63;1.52;;;;;;;17.17;56.75;98302.34;4977969;28;20038;-66
2021/07/23 03:23:57;;;;;;;3.33;1.80;;;;;;;17.18;56.91;98304.72;5010431;28;20539;-66
2021/07/23 03:26:23;;;;;;;3.72;1.60;;;;;;;17.37;56.50;98303.72;5010303;28;20304;-65
2021/07/23 03:28:51;;;;;;;3.85;1.75;;;;;;;17.99;55.03;98311.69;5012057;28;20053;-67
2021/07/23 03:31:19;;;;;;;1.60;1.40;;;;;;;18.83;52.69;98299.75;5010386;28;20611;-66
2021/07/23 03:34:08;;;;;;;2.10;1.73;;;;;;;19.58;50.54;98307.44;5010121;28;20053;-64
2021/07/23 03:36:52;;;;;;;2.42;1.73;;;;;;;20.06;48.92;98300.91;5011862;28;20073;-65
2021/07/23 03:39:25;;;;;;;3.47;1.48;;;;;;;20.41;47.97;98292.56;5011264;28;20058;-65
2021/07/23 03:41:51;;;;;;;3.88;1.48;;;;;;;20.66;47.27;98284.66;5010242;28;20064;-65
2021/07/23 03:44:19;;;;;;;3.25;1.50;;;;;;;20.92;46.85;98287.91;5010187;28;20069;-73
2021/07/23 03:46:47;;;;;;;4.68;1.85;;;;;;;21.04;46.33;98284.44;5011382;28;20050;-72
2021/07/23 03:49:13;;;;;;;2.42;1.42;;;;;;;21.18;45.97;98284.94;5010115;28;20061;-72
2021/07/23 03:51:44;;;;;;;2.10;1.50;;;;;;;21.42;45.46;98291.50;5011462;28;20038;-66
2021/07/23 03:54:11;;;;;;;1.88;1.60;;;;;;;21.53;45.05;98288.03;5009794;28;20054;-67
2021/07/23 03:56:37;;;;;;;1.58;1.48;;;;;;;21.73;44.78;98285.56;5011270;28;20049;-72
2021/07/23 03:59:05;;;;;;;4.47;2.17;;;;;;;21.59;45.15;98280.50;5011374;28;20053;-71
2021/07/23 04:01:51;;;;;;;4.35;1.80;;;;;;;21.57;44.91;98293.53;5010658;28;20046;-67
2021/07/23 04:04:19;;;;;;;4.70;1.70;;;;;;;21.81;44.40;98284.66;5009910;28;20050;-68
2021/07/23 04:06:47;;;;;;;3.45;1.70;;;;;;;22.06;44.00;98284.63;5009731;28;20049;-65
2021/07/23 04:09:13;;;;;;;4.05;1.77;;;;;;;21.84;44.36;98281.28;5011423;28;20038;-68
2021/07/23 04:11:49;;;;;;;4.97;2.15;;;;;;;21.44;45.36;98287.34;4997223;28;20113;-69
2021/07/23 04:14:19;;;;;;;4.53;1.92;;;;;;;21.81;44.51;98281.94;4991605;28;20500;-69
2021/07/23 04:16:47;;;;;;;4.63;2.05;;;;;;;22.11;44.00;98279.00;4990303;28;20061;-69
2021/07/23 04:19:14;;;;;;;4.82;1.80;;;;;;;21.81;44.25;98283.88;4990216;28;20054;-69
2021/07/23 04:21:47;;;;;;;2.97;1.95;;;;;;;21.41;45.44;98279.91;4991578;28;20172;-64
2021/07/23 04:24:39;;;;;;;5.18;1.90;;;;;;;21.02;46.75;98276.69;5003377;28;20061;-71
2021/07/23 04:27:06;;;;;;;3.78;1.63;;;;;;;20.67;47.45;98275.44;4973804;28;20058;-70
2021/07/23 04:29:33;;;;;;;4.82;1.90;;;;;;;20.50;48.07;98274.47;4991347;28;20043;-71
2021/07/23 04:31:59;;;;;;;5.70;1.75;;;;;;;20.34;48.59;98281.56;5002144;28;20069;-70
2021/07/23 04:34:27;;;;;;;3.50;2.10;;;;;;;20.10;49.05;98291.06;4994984;28;20042;-72
2021/07/23 04:37:07;;;;;;;3.55;1.77;;;;;;;19.98;49.68;98279.44;4976276;28;20060;-65
2021/07/23 04:39:51;;;;;;;3.40;2.22;;;;;;;19.82;50.16;98279.22;4991460;28;20427;-64
2021/07/23 04:42:17;;;;;;;2.60;1.83;;;;;;;19.64;50.93;98275.78;5006452;28;20050;-64
2021/07/23 04:44:44;;;;;;;7.07;1.92;;;;;;;19.58;51.23;98275.19;5006680;28;20511;-65
2021/07/23 04:47:10;;;;;;;3.17;2.20;;;;;;;19.61;51.01;98263.00;5010515;28;20052;-62
2021/07/23 04:49:41;;;;;;;4.70;1.73;;;;;;;19.58;51.43;98261.75;5003579;28;20073;-66
2021/07/23 04:52:16;;;;;;;3.05;1.95;;;;;;;19.46;51.94;98254.38;4993129;28;20408;-63
2021/07/23 04:55:21;;;;;;;3.42;1.73;;;;;;;19.36;52.97;98262.03;4961426;28;20047;-68
2021/07/23 04:58:14;;;;;;;5.20;2.17;;;;;;;19.21;53.96;98255.28;4978581;28;20054;-72
2021/07/23 05:00:40;;;;;;;3.22;2.03;;;;;;;19.14;54.06;98249.59;4992250;28;20053;-75
2021/07/23 05:03:06;;;;;;;2.83;1.75;;;;;;;19.03;54.21;98244.59;5008402;28;20043;-71
2021/07/23 05:05:33;;;;;;;5.40;1.73;;;;;;;18.99;53.70;98248.22;4996716;28;20050;-70
2021/07/23 05:07:59;;;;;;;3.38;1.80;;;;;;;18.95;54.28;98241.94;4992469;28;20141;-70
2021/07/23 05:10:27;;;;;;;4.05;1.85;;;;;;;18.95;54.57;98231.19;4993031;28;20077;-68
2021/07/23 05:12:53;;;;;;;3.65;1.77;;;;;;;19.18;53.75;98239.81;4994296;28;20483;-69
2021/07/23 05:15:19;;;;;;;2.58;1.70;;;;;;;19.34;53.78;98248.13;4993041;28;20046;-69
2021/07/23 05:17:44;;;;;;;7.18;2.10;;;;;;;19.46;53.41;98230.19;4961439;28;20053;-64
2021/07/23 05:20:11;;;;;;;3.35;1.90;;;;;;;19.51;53.05;98231.91;5001660;28;20117;-72
2021/07/23 05:22:38;;;;;;;3.72;1.70;;;;;;;19.64;52.39;98235.47;5013789;28;20045;-70
2021/07/23 05:25:06;;;;;;;4.63;1.90;;;;;;;20.07;52.23;98229.84;5011219;28;20531;-74
2021/07/23 05:27:32;;;;;;;2.38;1.80;;;;;;;20.36;50.94;98225.50;5013377;28;20144;-70
2021/07/23 05:29:59;;;;;;;3.47;1.60;;;;;;;20.43;50.97;98226.53;5002052;28;20507;-69
2021/07/23 05:32:25;;;;;;;3.42;1.98;;;;;;;20.66;50.21;98222.72;4994150;28;20075;-73
2021/07/23 05:34:50;;;;;;;1.92;1.33;;;;;;;20.85;49.72;98214.91;5002829;28;20039;-75
2021/07/23 05:37:16;;;;;;;1.75;1.60;;;;;;;20.91;49.36;98216.25;4992552;28;20062;-73
2021/07/23 05:39:42;;;;;;;3.10;1.60;;;;;;;20.89;49.46;98212.34;4990004;28;20046;-72
2021/07/23 05:42:09;;;;;;;5.00;1.70;;;;;;;20.84;49.55;98197.97;5011049;28;20049;-71
2021/07/23 05:44:35;;;;;;;2.88;1.80;;;;;;;20.92;49.59;98195.53;5002924;28;20041;-71
2021/07/23 05:47:01;;;;;;;2.42;1.40;;;;;;;21.01;48.76;98194.31;5013280;28;20096;-72
2021/07/23 05:49:28;;;;;;;1.85;1.70;;;;;;;20.95;49.28;98190.25;4999623;28;20137;-73
2021/07/23 05:51:54;;;;;;;3.78;1.58;;;;;;;20.97;49.35;98187.22;5005481;28;20053;-73
2021/07/23 05:54:20;;;;;;;2.53;1.73;;;;;;;20.86;49.47;98181.50;5004340;28;20069;-69
2021/07/23 05:56:46;;;;;;;2.17;1.52;;;;;;;20.96;49.70;98177.56;4993013;28;20174;-68
2021/07/23 05:59:12;;;;;;;2.08;1.73;;;;;;;21.23;49.55;98171.50;4992342;28;20046;-72
2021/07/23 06:01:38;;;;;;;3.83;1.73;;;;;;;21.39;48.54;98173.56;4991424;28;20042;-73
2021/07/23 06:04:04;;;;;;;3.33;1.85;;;;;;;21.40;48.11;98172.44;4980610;28;20044;-73
2021/07/23 06:06:30;;;;;;;4.68;1.92;;;;;;;21.28;48.64;98170.50;5012801;28;20050;-73
2021/07/23 06:09:00;;;;;;;4.97;2.40;;;;;;;21.22;48.33;98174.56;5001989;28;20528;-73
2021/07/23 06:11:26;;;;;;;4.95;1.90;;;;;;;21.16;48.89;98175.91;4971761;28;20046;-73
2021/07/23 06:13:52;;;;;;;4.32;1.70;;;;;;;21.18;48.71;98176.34;4979868;28;20042;-75
2021/07/23 06:16:18;;;;;;;5.78;1.77;;;;;;;21.32;48.66;98174.91;4990223;28;20100;-76
2021/07/23 06:18:44;;;;;;;4.35;1.83;;;;;;;21.42;48.76;98176.38;4982394;28;20046;-75
2021/07/23 06:21:10;;;;;;;4.97;1.63;;;;;;;21.50;48.55;98170.09;4974605;28;20050;-75
2021/07/23 06:23:37;;;;;;;2.72;1.60;;;;;;;21.57;48.73;98172.19;5007966;28;20515;-75
2021/07/23 06:26:03;;;;;;;4.22;1.48;;;;;;;21.63;48.75;98178.94;5010664;28;20061;-74
2021/07/23 06:28:30;;;;;;;3.53;1.58;;;;;;;21.83;47.75;98174.50;4983408;28;20038;-76
2021/07/23 06:31:03;;;;;;;3.00;1.75;;;;;;;21.86;47.69;98178.44;4991080;28;20042;-75
2021/07/23 06:33:29;;;;;;;2.88;1.77;;;;;;;21.92;48.14;98168.97;4989239;28;20061;-76
2021/07/23 06:35:55;;;;;;;3.75;1.65;;;;;;;21.93;47.72;98165.94;5008725;28;20046;-75
2021/07/23 06:38:21;;;;;;;3.47;1.60;;;;;;;21.61;48.63;98177.69;5010396;28;20041;-75
2021/07/23 06:40:47;;;;;;;3.72;1.98;;;;;;;21.54;48.91;98159.41;5002996;28;20074;-75
2021/07/23 06:43:13;;;;;;;2.92;1.95;;;;;;;21.52;48.93;98148.94;4986859;28;20061;-75
2021/07/23 06:45:39;;;;;;;3.17;1.70;;;;;;;21.51;49.07;98152.78;5006348;28;20052;-73
2021/07/23 06:48:05;;;;;;;2.70;1.60;;;;;;;21.64;48.97;98142.75;5009407;28;20050;-75
2021/07/23 06:50:31;;;;;;;4.70;1.60;;;;;;;21.67;49.18;98142.06;4992926;28;20522;-77
2021/07/23 06:52:58;;;;;;;4.35;2.00;;;;;;;21.66;49.07;98145.09;4988292;28;20038;-74
2021/07/23 06:55:23;;;;;;;2.85;1.60;;;;;;;21.60;49.04;98154.56;5000863;28;20619;-74
2021/07/23 06:57:49;;;;;;;6.22;1.75;;;;;;;21.53;49.47;98155.94;5005627;28;20058;-71
2021/07/23 07:00:15;;;;;;;4.35;1.80;;;;;;;21.61;49.15;98156.91;5007302;28;20136;-76
2021/07/23 07:02:41;;;;;;;3.17;1.70;;;;;;;21.73;49.01;98156.88;5006924;28;20391;-75
2021/07/23 07:05:08;;;;;;;4.68;2.00;;;;;;;21.88;48.49;98154.59;4972870;28;20559;-72
2021/07/23 07:07:34;;;;;;;5.45;1.98;;;;;;;22.00;48.18;98152.66;4985506;28;20050;-76
2021/07/23 07:09:59;;;;;;;3.17;1.80;;;;;;;22.19;48.15;98160.13;4987122;28;20421;-73
2021/07/23 07:12:25;;;;;;;6.20;1.95;;;;;;;22.21;48.24;98152.50;4987766;28;20093;-73
2021/07/23 07:14:51;;;;;;;2.70;1.63;;;;;;;22.31;47.43;98148.50;4999952;28;20074;-74
2021/07/23 07:17:18;;;;;;;3.80;1.70;;;;;;;22.55;47.14;98149.50;4972474;28;20423;-72
2021/07/23 07:19:44;;;;;;;4.13;1.80;;;;;;;22.89;46.89;98137.25;5006120;28;20530;-77
2021/07/23 07:22:10;;;;;;;4.88;1.80;;;;;;;23.22;46.58;98133.41;5004957;28;20044;-75
2021/07/23 07:24:36;;;;;;;3.45;1.90;;;;;;;23.61;44.98;98119.97;5001526;28;20038;-75
2021/07/23 07:27:02;;;;;;;3.40;1.90;;;;;;;23.60;45.51;98118.41;4987939;28;20156;-75
2021/07/23 07:29:28;;;;;;;3.45;2.22;;;;;;;23.61;45.41;98111.84;4986512;28;20559;-76
2021/07/23 07:31:54;;;;;;;4.82;1.77;;;;;;;23.69;44.98;98105.44;4988545;28;20046;-75
2021/07/23 07:34:20;;;;;;;5.95;1.88;;;;;;;23.67;45.22;98113.13;4994709;28;20037;-76
2021/07/23 07:36:46;;;;;;;6.00;2.30;;;;;;;23.63;45.65;98114.97;4985942;28;20096;-75
2021/07/23 07:39:13;;;;;;;3.13;1.70;;;;;;;23.64;44.95;98117.31;4987354;28;20058;-76
2021/07/23 07:41:39;;;;;;;3.60;1.77;;;;;;;23.68;45.51;98112.78;4988398;28;20046;-75
2021/07/23 07:44:07;;;;;;;3.28;1.98;;;;;;;23.59;45.15;98112.22;4977480;28;20480;-74
2021/07/23 07:46:33;;;;;;;2.95;2.20;;;;;;;23.53;44.79;98097.38;5000307;28;20054;-75
2021/07/23 07:48:58;;;;;;;6.38;2.00;;;;;;;23.33;44.94;98107.41;5005935;28;20042;-74
2021/07/23 07:51:24;;;;;;;5.07;2.33;;;;;;;23.27;45.04;98104.19;5007909;28;20503;-74
2021/07/23 07:53:50;;;;;;;7.68;2.10;;;;;;;23.61;44.81;98101.03;4999275;28;20530;-74
2021/07/23 07:56:16;;;;;;;6.57;2.05;;;;;;;23.97;43.72;98100.63;4989378;28;20061;-72
2021/07/23 07:58:42;;;;;;;7.65;2.20;;;;;;;23.85;43.97;98103.47;4987394;28;20514;-62
2021/07/23 08:01:09;;;;;;;7.30;2.08;;;;;;;23.86;43.93;98101.56;4990092;28;20046;-64
2021/07/23 08:03:35;;;;;;;3.65;2.00;;;;;;;23.84;43.99;98101.13;4987610;28;20470;-62
2021/07/23 08:06:11;;;;;;;2.83;1.80;;;;;;;23.64;43.86;98098.38;5003113;28;20114;-61
2021/07/23 08:08:37;;;;;;;3.47;1.55;;;;;;;23.76;43.74;98098.28;5006180;28;20076;-61
2021/07/23 08:11:03;;;;;;;9.18;2.05;;;;;;;23.68;44.13;98107.38;5009028;28;20053;-62
2021/07/23 08:13:31;;;;;;;5.20;2.03;;;;;;;23.63;44.32;98094.13;4988685;28;20043;-63
2021/07/23 08:15:57;;;;;;;4.95;2.13;;;;;;;23.56;44.39;98094.00;5001190;28;20058;-61
2021/07/23 08:18:23;;;;;;;5.38;2.28;;;;;;;23.47;44.36;98109.59;5001773;28;20038;-62
2021/07/23 08:20:53;;;;;;;4.32;1.95;;;;;;;23.34;44.49;98096.22;4991597;28;20078;-60
2021/07/23 08:23:20;;;;;;;7.45;2.08;;;;;;;23.46;44.29;98097.22;4987511;28;20417;-61
2021/07/23 08:25:46;;;;;;;19.25;3.00;;;;;;;23.44;44.23;98097.59;4996038;28;20479;-61
2021/07/23 08:28:12;;;;;;;16.05;2.70;;;;;;;23.43;43.32;98097.94;5010370;28;20100;-60
2021/07/23 08:30:38;;;;;;;10.27;2.40;;;;;;;23.44;43.49;98084.09;5005719;28;20050;-60
2021/07/23 08:33:05;;;;;;;12.85;2.90;;;;;;;23.50;43.30;98085.38;5001654;28;20042;-62
2021/07/23 08:35:32;;;;;;;3.65;1.85;;;;;;;23.77;43.50;98088.25;5003922;28;20117;-61
2021/07/23 08:37:58;;;;;;;9.70;2.40;;;;;;;23.92;42.66;98089.31;5009191;28;20038;-64
2021/07/23 08:40:24;;;;;;;3.50;1.80;;;;;;;23.83;41.97;98084.13;5008808;28;20129;-63
2021/07/23 08:42:50;;;;;;;7.40;2.25;;;;;;;23.91;41.68;98079.63;4974880;28;20603;-62
2021/07/23 08:45:15;;;;;;;3.40;2.00;;;;;;;23.76;42.11;98065.81;4990367;28;20065;-63
2021/07/23 08:47:41;;;;;;;3.47;1.73;;;;;;;23.65;42.94;98078.31;4990157;28;20046;-62
2021/07/23 08:50:08;;;;;;;3.03;1.92;;;;;;;23.64;42.19;98074.03;5009500;28;20057;-60
2021/07/23 08:52:41;;;;;;;5.80;2.35;;;;;;;23.44;42.17;98067.03;5008660;28;20041;-62
2021/07/23 08:55:08;;;;;;;2.67;1.95;;;;;;;22.92;43.37;98043.91;5002537;28;20046;-62
2021/07/23 08:57:34;;;;;;;4.15;2.17;;;;;;;22.97;43.48;98081.47;4975002;28;20488;-61
2021/07/23 09:00:05;;;;;;;5.45;2.13;;;;;;;22.82;44.25;98088.44;4992724;28;20058;-62
2021/07/23 09:02:56;;;;;;;5.28;2.35;;;;;;;22.81;44.39;98076.84;4998623;28;20065;-61
2021/07/23 09:05:24;;;;;;;3.80;2.35;;;;;;;22.75;44.79;98077.47;4998614;28;20084;-60
2021/07/23 09:07:50;;;;;;;4.82;2.05;;;;;;;22.82;44.46;98077.63;5010905;28;20042;-61
2021/07/23 09:10:27;;;;;;;5.28;2.10;;;;;;;23.02;44.38;98065.78;5005539;28;20440;-61
2021/07/23 09:12:56;;;;;;;4.43;2.10;;;;;;;23.19;44.01;98064.59;4991323;28;20493;-59
2021/07/23 09:15:27;;;;;;;3.80;2.17;;;;;;;23.45;43.87;98050.47;4988640;28;20062;-61
2021/07/23 09:17:53;;;;;;;8.50;2.42;;;;;;;23.61;42.77;98055.03;4993774;28;20037;-62
2021/07/23 09:20:21;;;;;;;3.65;2.15;;;;;;;23.55;42.36;98051.84;5005888;28;20484;-63
2021/07/23 09:22:52;;;;;;;3.05;2.20;;;;;;;23.23;42.60;98040.34;4991375;28;20491;-60
2021/07/23 09:25:40;;;;;;;7.03;2.33;;;;;;;22.84;42.11;98046.41;4992549;28;20118;-63
2021/07/23 09:28:26;;;;;;;5.43;2.50;;;;;;;22.78;42.13;98030.84;4988659;28;20048;-63
2021/07/23 09:30:53;;;;;;;9.73;2.58;;;;;;;22.60;42.36;98038.53;4988491;28;20423;-62
2021/07/23 09:33:40;;;;;;;9.52;2.63;;;;;;;22.71;41.83;98047.66;4989940;28;20030;-64
2021/07/23 09:36:11;;;;;;;8.80;2.72;;;;;;;22.97;40.73;98052.56;4988566;28;20054;-62
2021/07/23 09:38:44;;;;;;;5.57;2.50;;;;;;;23.13;40.87;98037.06;5000107;28;20412;-61
2021/07/23 09:41:22;;;;;;;5.60;2.58;;;;;;;23.22;40.67;98046.91;5001794;28;20593;-61
2021/07/23 09:44:08;;;;;;;10.30;2.22;;;;;;;23.41;39.74;98040.72;5018449;28;20202;-62
2021/07/23 09:46:34;;;;;;;10.95;2.72;;;;;;;23.54;39.62;98048.34;5005926;28;20054;-62
2021/07/23 09:49:21;;;;;;;6.43;2.50;;;;;;;23.62;37.69;98043.88;5008112;28;20472;-62
2021/07/23 09:51:48;;;;;;;3.97;2.35;;;;;;;24.02;36.50;98054.31;5007936;28;20053;-64
2021/07/23 09:54:14;;;;;;;3.83;2.38;;;;;;;24.30;36.09;98047.88;4999007;28;20042;-61
2021/07/23 09:56:40;;;;;;;6.47;2.47;;;;;;;24.42;36.49;98045.00;4997719;28;20150;-61
2021/07/23 09:59:12;;;;;;;4.82;2.13;;;;;;;24.10;37.04;98049.03;4990027;28;20089;-63
2021/07/23 10:01:41;;;;;;;3.45;2.40;;;;;;;23.75;37.65;98053.44;4998441;28;20416;-59
2021/07/23 10:04:35;;;;;;;6.57;2.43;;;;;;;23.36;37.91;98098.56;4987945;28;20670;-61
2021/07/23 10:07:09;;;;;;;24.83;4.03;;;;;;;22.15;45.35;98169.25;4952517;28;20539;-61
2021/07/23 10:09:36;;;;;;;9.35;2.60;;;;;;;20.92;49.75;98147.03;4989307;28;20077;-64
2021/07/23 10:12:02;;;;;;;12.63;2.25;;;;;;;20.09;52.85;98176.53;4998946;28;20057;-61
2021/07/23 10:14:31;;;;;;;7.68;2.85;;;;;;;19.84;54.08;98148.69;5007796;28;20049;-63
2021/07/23 10:16:57;;;;;;;4.57;2.42;;;;;;;19.63;54.97;98164.00;4997536;28;20357;-62
2021/07/23 10:19:24;;;;;;;5.80;2.53;;;;;;;19.63;56.97;98147.88;5005978;28;20041;-62
2021/07/23 10:21:55;;;;;;;3.53;2.40;;;;;;;19.21;57.63;98167.41;4988061;28;20065;-61
2021/07/23 10:24:21;;;;;;;5.22;2.70;;;;;;;18.84;59.11;98177.81;5006547;28;20064;-61
2021/07/23 10:26:47;;;;;;;5.03;2.88;;;;;;;18.67;60.12;98199.31;5006292;28;20057;-61
2021/07/23 10:29:14;;;;;;;4.80;3.00;;;;;;;18.36;61.00;98188.81;5007998;28;20053;-60
2021/07/23 10:31:40;;;;;;;6.40;3.60;;;;;;;18.46;61.39;98193.03;5009534;28;20137;-60
2021/07/23 10:34:07;;;;;;;7.57;4.00;;;;;;;18.31;61.30;98197.00;5006247;28;20042;-60
2021/07/23 10:36:38;;;;;;;6.25;4.10;;;;;;;18.14;62.49;98206.63;5011964;28;20068;-61
2021/07/23 10:39:06;;;;;;;4.60;3.55;;;;;;;17.97;63.02;98206.66;5004050;28;20526;-59
2021/07/23 10:41:41;;;;;;;5.97;4.05;;;;;;;17.68;64.28;98196.50;4989051;28;20048;-59
2021/07/23 10:44:12;;;;;;;5.65;3.60;;;;;;;17.57;65.36;98201.34;4988342;28;20058;-61
2021/07/23 10:46:44;;;;;;;5.60;4.13;;;;;;;17.37;65.44;98202.72;4989196;28;20623;-61
2021/07/23 10:49:33;;;;;;;6.78;4.18;;;;;;;17.44;65.71;98187.00;4991182;28;20046;-62
2021/07/23 10:52:03;;;;;;;6.03;4.03;;;;;;;17.58;66.16;98181.47;5010832;28;20042;-61
2021/07/23 10:54:34;;;;;;;7.63;4.40;;;;;;;17.88;65.28;98185.19;5007684;28;20495;-61
2021/07/23 10:57:03;;;;;;;6.00;4.47;;;;;;;18.10;63.79;98172.72;5001887;28;20221;-63
2021/07/23 10:59:38;;;;;;;6.40;4.13;;;;;;;18.46;62.34;98171.59;5027517;28;20068;-60
2021/07/23 11:02:24;;;;;;;6.47;4.15;;;;;;;18.64;63.05;98167.75;5007878;28;20045;-60
2021/07/23 11:04:53;;;;;;;4.75;3.80;;;;;;;18.86;61.21;98164.09;4967298;28;20037;-62
2021/07/23 11:07:25;;;;;;;6.50;4.05;;;;;;;19.12;62.02;98161.31;5007603;28;20544;-62
2021/07/23 11:09:51;;;;;;;6.18;4.10;;;;;;;19.02;60.36;98169.72;5005734;28;20121;-59
2021/07/23 11:12:19;;;;;;;6.93;4.00;;;;;;;18.88;62.20;98183.34;5000851;28;20112;-63
2021/07/23 11:14:52;;;;;;;6.30;3.85;;;;;;;18.82;62.38;98180.06;5007629;28;20474;-62
2021/07/23 11:17:19;;;;;;;6.10;4.40;;;;;;;18.78;62.06;98191.75;5006348;28;20049;-65
2021/07/23 11:19:49;;;;;;;7.47;4.57;;;;;;;18.81;61.96;98181.16;5003321;28;20038;-63
2021/07/23 11:22:25;;;;;;;5.90;4.60;;;;;;;18.68;60.96;98171.38;4990640;28;20459;-62
2021/07/23 11:24:54;;;;;;;7.88;4.40;;;;;;;18.79;61.93;98183.34;5005093;28;20049;-61
2021/07/23 11:27:31;;;;;;;6.87;4.70;;;;;;;18.77;61.79;98182.13;4993359;28;20146;-62
2021/07/23 11:29:58;;;;;;;7.30;4.50;;;;;;;18.88;61.93;98172.59;4972756;28;20038;-61
2021/07/23 11:32:27;;;;;;;6.03;4.25;;;;;;;18.93;61.42;98180.47;5000881;28;20136;-61
2021/07/23 11:35:04;;;;;;;7.90;4.53;;;;;;;19.06;60.08;98176.03;5007149;28;20042;-63
2021/07/23 11:37:30;;;;;;;7.20;4.28;;;;;;;19.02;61.21;98183.13;5005373;28;20071;-62
2021/07/23 11:40:04;;;;;;;7.85;4.10;;;;;;;18.86;60.05;98184.78;5007266;28;20531;-64
2021/07/23 11:42:39;;;;;;;8.43;4.20;;;;;;;18.66;61.00;98165.53;5007467;28;20454;-63